createdAt,value
2023-01-31T00:02:23.719Z,35.43
2023-01-31T00:05:09.940Z,39.97
2023-01-31T00:07:54.247Z,39.70
2023-01-31T00:10:38.491Z,51.90
2023-01-31T00:13:22.318Z,52.73
2023-01-31T00:16:07.129Z,47.27
2023-01-31T00:18:51.189Z,50.93
2023-01-31T00:21:36.304Z,50.27
2023-01-31T00:24:20.154Z,41.80
2023-01-31T00:27:03.898Z,57.10
2023-01-31T00:29:47.621Z,46.77
2023-01-31T00:32:33.038Z,49.80
2023-01-31T00:35:16.912Z,48.07
2023-01-31T00:38:02.996Z,49.33
2023-01-31T00:40:53.372Z,52.03
2023-01-31T00:43:37.949Z,52.17
2023-01-31T00:46:23.797Z,53.03
2023-01-31T00:49:07.926Z,43.17
2023-01-31T00:51:51.881Z,49.13
2023-01-31T00:54:37.242Z,48.60
2023-01-31T00:57:21.644Z,47.83
2023-01-31T01:00:06.769Z,44.33
2023-01-31T01:02:50.686Z,45.70
2023-01-31T01:05:35.326Z,39.60
2023-01-31T01:08:19.780Z,39.67
2023-01-31T01:11:08.434Z,39.23
2023-01-31T01:13:52.870Z,37.10
2023-01-31T01:16:40.113Z,32.33
2023-01-31T01:19:24.146Z,33.60
2023-01-31T01:22:08.033Z,32.00
2023-01-31T01:24:52.685Z,28.23
2023-01-31T01:27:37.855Z,27.93
2023-01-31T01:30:22.369Z,26.27
2023-01-31T01:33:06.247Z,30.57
2023-01-31T01:35:50.439Z,28.73
2023-01-31T01:38:36.465Z,28.70
2023-01-31T01:41:20.838Z,25.33
2023-01-31T01:44:39.508Z,25.30
2023-01-31T01:47:35.507Z,28.20
2023-01-31T01:50:26.802Z,25.27
2023-01-31T01:53:13.720Z,25.50
2023-01-31T01:56:01.517Z,25.87
2023-01-31T01:58:52.166Z,28.80
2023-01-31T02:01:38.553Z,25.50
2023-01-31T02:04:32.226Z,27.53
2023-01-31T02:07:16.084Z,26.67
2023-01-31T02:10:04.819Z,25.53
2023-01-31T02:12:48.659Z,29.00
2023-01-31T02:15:32.959Z,29.33
2023-01-31T02:18:18.522Z,26.57
2023-01-31T02:21:30.720Z,28.13
2023-01-31T02:24:49.783Z,30.07
2023-01-31T02:28:01.288Z,31.00
2023-01-31T02:31:29.822Z,33.10
2023-01-31T02:34:20.781Z,29.43
2023-01-31T02:37:18.271Z,27.17
2023-01-31T02:40:12.472Z,29.17
2023-01-31T02:43:02.826Z,28.23
2023-01-31T02:45:54.545Z,29.93
2023-01-31T02:48:51.376Z,28.67
2023-01-31T02:51:41.375Z,29.67
2023-01-31T02:54:48.339Z,31.03
2023-01-31T02:57:31.578Z,30.73
2023-01-31T03:00:16.437Z,27.47
2023-01-31T03:03:00.212Z,30.93
2023-01-31T03:05:43.997Z,31.40
2023-01-31T03:08:29.287Z,34.57
2023-01-31T03:11:13.353Z,34.80
2023-01-31T03:14:10.000Z,23.43
2023-01-31T03:17:15.572Z,22.47
2023-01-31T03:20:05.986Z,28.10
2023-01-31T03:22:55.810Z,25.17
2023-01-31T03:25:42.196Z,30.40
2023-01-31T03:28:31.690Z,22.70
2023-01-31T03:31:20.858Z,30.40
2023-01-31T03:34:07.960Z,27.47
2023-01-31T03:36:58.646Z,29.77
2023-01-31T03:40:01.320Z,29.10
2023-01-31T03:42:55.379Z,21.90
2023-01-31T03:45:43.452Z,24.77
2023-01-31T03:48:32.658Z,21.97
2023-01-31T03:51:21.002Z,24.23
2023-01-31T03:54:09.147Z,23.53
2023-01-31T03:56:58.779Z,26.40
2023-01-31T03:59:48.430Z,29.13
2023-01-31T04:02:36.063Z,23.40
2023-01-31T04:05:23.897Z,52.77
2023-01-31T04:08:12.504Z,32.73
2023-01-31T04:11:00.244Z,28.30
2023-01-31T04:13:44.316Z,25.37
2023-01-31T04:16:29.584Z,24.37
2023-01-31T04:19:13.372Z,24.10
2023-01-31T04:21:57.143Z,26.00
2023-01-31T04:24:40.963Z,29.23
2023-01-31T04:27:25.481Z,25.57
2023-01-31T04:30:10.732Z,28.23
2023-01-31T04:32:55.963Z,25.00
2023-01-31T04:35:41.159Z,28.80
2023-01-31T04:38:25.051Z,24.73
2023-01-31T04:41:09.770Z,34.33
2023-01-31T04:43:53.611Z,22.80
2023-01-31T04:46:37.417Z,22.10
2023-01-31T04:49:22.810Z,29.20
2023-01-31T04:52:07.381Z,32.30
2023-01-31T04:54:51.305Z,28.13
2023-01-31T04:57:35.148Z,30.87
2023-01-31T05:00:20.293Z,31.03
2023-01-31T05:03:04.117Z,37.00
2023-01-31T05:05:50.750Z,33.43
2023-01-31T05:08:34.549Z,46.53
2023-01-31T05:11:18.453Z,39.40
2023-01-31T05:14:02.280Z,30.37
2023-01-31T05:16:48.563Z,33.13
2023-01-31T05:19:32.642Z,31.30
2023-01-31T05:22:17.958Z,35.57
2023-01-31T05:25:01.745Z,33.50
2023-01-31T05:27:46.865Z,36.90
2023-01-31T05:30:31.479Z,39.33
2023-01-31T05:33:15.593Z,43.00
2023-01-31T05:35:59.516Z,44.43
2023-01-31T05:38:44.685Z,42.93
2023-01-31T05:41:28.511Z,46.97
2023-01-31T05:44:12.384Z,42.37
2023-01-31T05:46:56.290Z,42.03
2023-01-31T05:49:40.332Z,40.03
2023-01-31T05:52:24.151Z,41.03
2023-01-31T05:55:10.303Z,42.10
2023-01-31T05:57:54.883Z,43.87
2023-01-31T06:00:38.787Z,51.17
2023-01-31T06:03:22.762Z,58.10
2023-01-31T06:06:07.043Z,55.00
2023-01-31T06:08:50.901Z,62.43
2023-01-31T06:11:36.089Z,49.63
2023-01-31T06:14:20.443Z,45.50
2023-01-31T06:17:04.230Z,42.67
2023-01-31T06:19:48.136Z,41.63
2023-01-31T06:22:31.915Z,41.00
2023-01-31T06:25:15.812Z,42.10
2023-01-31T06:28:01.120Z,125.43
2023-01-31T06:30:45.168Z,47.87
2023-01-31T06:33:43.625Z,47.53
2023-01-31T06:36:34.197Z,46.10
2023-01-31T06:39:18.044Z,47.23
2023-01-31T06:42:01.779Z,52.37
2023-01-31T06:44:47.083Z,48.73
2023-01-31T06:47:30.874Z,43.67
2023-01-31T06:50:15.006Z,40.03
2023-01-31T06:52:59.412Z,46.33
2023-01-31T06:55:43.302Z,41.43
2023-01-31T06:58:27.089Z,39.07
2023-01-31T07:01:14.459Z,47.60
2023-01-31T07:03:58.315Z,37.60
2023-01-31T07:06:42.206Z,43.57
2023-01-31T07:09:26.059Z,42.80
2023-01-31T07:12:09.954Z,50.03
2023-01-31T07:14:53.869Z,52.97
2023-01-31T07:17:39.335Z,55.07
2023-01-31T07:20:23.414Z,52.70
2023-01-31T07:23:07.397Z,53.70
2023-01-31T07:25:51.222Z,54.57
2023-01-31T07:28:34.998Z,29.77
2023-01-31T07:31:18.932Z,27.97
2023-01-31T07:34:04.232Z,48.60
2023-01-31T07:36:47.972Z,33.40
2023-01-31T07:39:32.272Z,39.90
2023-01-31T07:42:16.347Z,43.57
2023-01-31T07:45:10.081Z,36.90
2023-01-31T07:48:01.012Z,26.10
2023-01-31T07:50:46.372Z,28.53
2023-01-31T07:53:32.333Z,27.80
2023-01-31T07:56:18.267Z,30.07
2023-01-31T07:59:02.230Z,26.00
2023-01-31T08:02:03.373Z,27.23
2023-01-31T08:04:47.807Z,27.87
2023-01-31T08:07:33.163Z,27.67
2023-01-31T08:10:17.998Z,28.13
2023-01-31T08:13:01.766Z,27.73
2023-01-31T08:15:45.829Z,28.27
2023-01-31T08:18:29.755Z,24.83
2023-01-31T08:21:14.527Z,25.40
2023-01-31T08:23:59.804Z,24.03
2023-01-31T08:26:44.504Z,26.67
2023-01-31T08:29:29.495Z,25.83
2023-01-31T08:32:13.497Z,24.90
2023-01-31T08:34:57.291Z,24.13
2023-01-31T08:37:41.185Z,25.40
2023-01-31T08:40:26.375Z,21.70
2023-01-31T08:43:10.329Z,24.47
2023-01-31T08:45:54.240Z,22.30
2023-01-31T08:48:39.611Z,25.43
2023-01-31T08:51:24.104Z,25.00
2023-01-31T08:54:09.838Z,21.87
2023-01-31T08:56:55.035Z,27.47
2023-01-31T08:59:38.945Z,25.83
2023-01-31T09:02:22.782Z,22.73
2023-01-31T09:05:08.387Z,23.83
2023-01-31T09:07:52.234Z,22.17
2023-01-31T09:10:36.029Z,24.10
2023-01-31T09:13:21.539Z,24.13
2023-01-31T09:16:08.755Z,23.53
2023-01-31T09:18:56.417Z,23.33
2023-01-31T09:21:40.279Z,21.67
2023-01-31T09:24:23.987Z,19.90
2023-01-31T09:27:07.692Z,23.57
2023-01-31T09:29:52.877Z,23.23
2023-01-31T09:32:37.250Z,21.37
2023-01-31T09:35:22.071Z,18.43
2023-01-31T09:38:06.033Z,24.50
2023-01-31T09:40:49.841Z,21.30
2023-01-31T09:43:37.378Z,20.03
2023-01-31T09:46:27.611Z,17.73
2023-01-31T09:49:19.315Z,22.20
2023-01-31T09:52:04.913Z,20.83
2023-01-31T09:54:48.688Z,22.27
2023-01-31T09:57:48.325Z,22.70
2023-01-31T10:00:36.957Z,19.37
2023-01-31T10:03:39.964Z,19.27
2023-01-31T10:06:26.772Z,21.17
2023-01-31T10:09:21.209Z,19.73
2023-01-31T10:12:11.533Z,20.43
2023-01-31T10:14:58.382Z,22.00
2023-01-31T10:17:46.871Z,20.90
2023-01-31T10:20:38.699Z,19.07
2023-01-31T10:23:29.288Z,20.97
2023-01-31T10:26:19.360Z,24.87
2023-01-31T10:29:12.110Z,23.73
2023-01-31T10:32:00.277Z,20.33
2023-01-31T10:34:46.526Z,22.40
2023-01-31T10:37:38.953Z,23.27
2023-01-31T10:40:30.380Z,24.63
2023-01-31T10:43:20.044Z,21.97
2023-01-31T10:46:04.152Z,21.43
2023-01-31T10:48:49.693Z,21.97
2023-01-31T10:51:53.431Z,21.83
2023-01-31T10:54:51.080Z,20.97
2023-01-31T10:57:35.460Z,19.47
2023-01-31T11:00:24.325Z,17.93
2023-01-31T11:03:08.354Z,19.47
2023-01-31T11:05:54.285Z,16.07
2023-01-31T11:08:43.674Z,19.83
2023-01-31T11:11:30.927Z,19.17
2023-01-31T11:14:19.750Z,16.57
2023-01-31T11:17:08.289Z,16.43
2023-01-31T11:19:54.113Z,17.50
2023-01-31T11:22:38.895Z,16.73
2023-01-31T11:25:24.876Z,15.57
2023-01-31T11:28:23.131Z,17.20
2023-01-31T11:31:09.985Z,15.87
2023-01-31T11:33:59.436Z,16.00
2023-01-31T11:36:45.810Z,15.77
2023-01-31T11:39:32.707Z,16.67
2023-01-31T11:42:18.232Z,12.10
2023-01-31T11:45:05.843Z,16.37
2023-01-31T11:47:52.417Z,15.77
2023-01-31T11:50:39.840Z,15.30
2023-01-31T11:53:26.239Z,13.80
2023-01-31T11:56:16.029Z,14.97
2023-01-31T11:59:06.084Z,19.20
2023-01-31T12:01:54.758Z,15.23
2023-01-31T12:04:44.163Z,13.97
2023-01-31T12:07:30.689Z,14.37
2023-01-31T12:10:31.673Z,13.77
2023-01-31T12:13:19.189Z,12.87
2023-01-31T12:16:06.869Z,13.97
2023-01-31T12:19:07.238Z,12.27
2023-01-31T12:21:57.689Z,15.80
2023-01-31T12:24:54.679Z,13.23
2023-01-31T12:28:01.652Z,13.50
2023-01-31T12:31:04.285Z,14.53
2023-01-31T12:34:07.344Z,12.93
2023-01-31T12:37:07.470Z,11.80
2023-01-31T12:40:11.887Z,10.07
2023-01-31T12:43:06.284Z,8.47
2023-01-31T12:46:07.377Z,10.07
2023-01-31T12:49:06.889Z,10.60
2023-01-31T12:52:02.679Z,9.43
2023-01-31T12:55:03.120Z,9.97
2023-01-31T12:57:55.955Z,10.90
2023-01-31T13:00:48.904Z,9.47
2023-01-31T13:03:49.396Z,9.57
2023-01-31T13:06:37.724Z,7.10
2023-01-31T13:09:27.805Z,9.23
2023-01-31T13:12:16.436Z,20.93
2023-01-31T13:15:06.343Z,21.50
2023-01-31T13:17:58.658Z,9.97
2023-01-31T13:20:47.786Z,11.43
2023-01-31T13:23:35.854Z,11.00
2023-01-31T13:26:26.696Z,11.00
2023-01-31T13:29:16.149Z,14.43
2023-01-31T13:32:03.666Z,10.10
2023-01-31T13:34:52.653Z,10.27
2023-01-31T13:37:41.941Z,10.37
2023-01-31T13:40:29.217Z,11.03
2023-01-31T13:43:17.603Z,10.90
2023-01-31T13:46:05.694Z,9.53
2023-01-31T13:48:54.363Z,10.03
2023-01-31T13:51:43.753Z,10.63
2023-01-31T13:54:33.501Z,11.20
2023-01-31T13:57:25.568Z,9.73
2023-01-31T14:00:38.057Z,9.20
2023-01-31T14:03:22.268Z,9.77
2023-01-31T14:06:06.419Z,9.43
2023-01-31T14:09:00.272Z,8.83
2023-01-31T14:11:45.851Z,8.37
2023-01-31T14:14:41.868Z,9.37
2023-01-31T14:18:01.370Z,9.03
2023-01-31T14:20:45.434Z,7.33
2023-01-31T14:23:32.612Z,11.37
2023-01-31T14:26:38.827Z,11.40
2023-01-31T14:29:25.920Z,24.07
2023-01-31T14:32:16.519Z,14.83
2023-01-31T14:35:19.136Z,19.17
2023-01-31T14:38:12.819Z,45.77
2023-01-31T14:41:05.864Z,14.27
2023-01-31T14:44:02.339Z,18.87
2023-01-31T14:47:09.065Z,13.90
2023-01-31T14:50:25.274Z,10.20
2023-01-31T14:53:25.051Z,8.30
2023-01-31T14:56:26.934Z,13.70
2023-01-31T14:59:27.943Z,16.33
2023-01-31T15:02:47.993Z,14.37
2023-01-31T15:05:52.261Z,13.13
2023-01-31T15:08:46.193Z,18.00
2023-01-31T15:11:43.196Z,13.10
2023-01-31T15:14:35.667Z,9.97
2023-01-31T15:17:35.132Z,7.30
2023-01-31T15:20:24.804Z,11.57
2023-01-31T15:23:20.123Z,9.43
2023-01-31T15:26:04.849Z,12.13
2023-01-31T15:28:50.835Z,8.43
2023-01-31T15:31:41.318Z,10.87
2023-01-31T15:34:32.075Z,7.93
2023-01-31T15:37:22.824Z,8.70
2023-01-31T15:40:18.095Z,8.70
2023-01-31T15:43:23.778Z,5.77
2023-01-31T15:46:23.803Z,8.50
2023-01-31T15:49:37.657Z,9.13
2023-01-31T15:52:23.775Z,11.87
2023-01-31T15:55:14.308Z,14.17
2023-01-31T15:58:01.053Z,10.70
2023-01-31T16:00:45.521Z,11.50
2023-01-31T16:03:30.996Z,11.73
2023-01-31T16:06:23.231Z,8.93
2023-01-31T16:09:10.722Z,8.50
2023-01-31T16:11:57.232Z,7.53
2023-01-31T16:14:44.104Z,11.37
2023-01-31T16:17:29.400Z,9.87
2023-01-31T16:20:39.776Z,10.27
2023-01-31T16:23:30.327Z,9.03
2023-01-31T16:26:17.875Z,8.60
2023-01-31T16:29:10.458Z,11.00
2023-01-31T16:31:56.756Z,6.80
2023-01-31T16:34:41.711Z,9.73
2023-01-31T16:37:35.135Z,11.53
2023-01-31T16:40:22.696Z,7.03
2023-01-31T16:43:12.858Z,8.23
2023-01-31T16:46:00.878Z,8.10
2023-01-31T16:49:02.215Z,7.23
2023-01-31T16:51:48.543Z,9.23
2023-01-31T16:54:43.927Z,8.83
2023-01-31T16:57:38.713Z,10.33
2023-01-31T17:00:36.497Z,10.33
2023-01-31T17:03:22.185Z,9.13
2023-01-31T17:06:07.281Z,20.10
2023-01-31T17:08:51.430Z,14.43
2023-01-31T17:11:43.587Z,15.23
2023-01-31T17:14:27.766Z,11.93
2023-01-31T17:17:20.676Z,11.70
2023-01-31T17:20:07.868Z,11.63
2023-01-31T17:23:02.303Z,11.50
2023-01-31T17:25:47.650Z,15.73
2023-01-31T17:28:31.785Z,9.37
2023-01-31T17:31:20.410Z,11.93
2023-01-31T17:34:04.754Z,11.50
2023-01-31T17:36:50.073Z,10.00
2023-01-31T17:39:35.173Z,9.30
2023-01-31T17:42:23.148Z,10.07
2023-01-31T17:45:14.261Z,7.83
2023-01-31T17:47:59.319Z,6.93
2023-01-31T17:50:45.597Z,9.27
2023-01-31T17:53:40.352Z,8.33
2023-01-31T17:56:31.863Z,8.77
2023-01-31T17:59:26.933Z,8.47
2023-01-31T18:02:14.869Z,8.87
2023-01-31T18:05:00.478Z,11.80
2023-01-31T18:07:50.065Z,10.37
2023-01-31T18:10:39.506Z,8.13
2023-01-31T18:13:24.491Z,10.30
2023-01-31T18:16:21.552Z,9.00
2023-01-31T18:19:07.012Z,10.40
2023-01-31T18:21:55.697Z,8.23
2023-01-31T18:24:41.646Z,7.90
2023-01-31T18:27:28.533Z,8.37
2023-01-31T18:30:14.679Z,8.70
2023-01-31T18:33:00.032Z,9.47
2023-01-31T18:35:46.006Z,9.93
2023-01-31T18:38:32.278Z,9.40
2023-01-31T18:41:19.955Z,9.83
2023-01-31T18:44:08.622Z,10.27
2023-01-31T18:46:53.909Z,10.13
2023-01-31T18:49:42.053Z,9.90
2023-01-31T18:52:28.537Z,9.73
2023-01-31T18:55:14.175Z,11.27
2023-01-31T18:57:59.737Z,8.63
2023-01-31T19:00:46.558Z,10.03
2023-01-31T19:03:32.521Z,8.93
2023-01-31T19:06:19.466Z,10.40
2023-01-31T19:09:08.542Z,9.17
2023-01-31T19:11:53.838Z,8.80
2023-01-31T19:14:39.432Z,9.77
2023-01-31T19:17:26.107Z,9.50
2023-01-31T19:20:13.258Z,10.70
2023-01-31T19:23:00.249Z,12.50
2023-01-31T19:25:52.901Z,12.10
2023-01-31T19:28:38.384Z,13.70
2023-01-31T19:31:25.713Z,11.33
2023-01-31T19:34:12.931Z,15.80
2023-01-31T19:36:59.029Z,13.63
2023-01-31T19:39:47.101Z,15.53
2023-01-31T19:42:31.937Z,13.47
2023-01-31T19:45:24.511Z,12.97
2023-01-31T19:48:10.157Z,13.63
2023-01-31T19:50:56.771Z,12.20
2023-01-31T19:53:43.198Z,11.90
2023-01-31T19:56:27.892Z,14.97
2023-01-31T19:59:12.702Z,13.63
2023-01-31T20:01:56.497Z,11.00
2023-01-31T20:04:40.366Z,11.57
2023-01-31T20:07:26.782Z,13.13
2023-01-31T20:10:13.033Z,11.47
2023-01-31T20:12:57.284Z,13.60
2023-01-31T20:15:41.094Z,12.70
2023-01-31T20:18:25.382Z,15.70
2023-01-31T20:21:10.163Z,11.40
2023-01-31T20:23:55.472Z,13.90
2023-01-31T20:26:39.456Z,12.67
2023-01-31T20:29:23.334Z,14.17
2023-01-31T20:32:09.542Z,12.97
2023-01-31T20:34:53.584Z,13.00
2023-01-31T20:37:37.353Z,11.33
2023-01-31T20:40:23.091Z,13.90
2023-01-31T20:43:08.092Z,13.10
2023-01-31T20:45:52.441Z,14.03
2023-01-31T20:48:36.965Z,13.93
2023-01-31T20:51:21.189Z,12.87
2023-01-31T20:54:06.233Z,9.67
2023-01-31T20:56:52.229Z,11.13
2023-01-31T20:59:36.009Z,12.80
2023-01-31T21:02:20.581Z,11.03
2023-01-31T21:05:04.445Z,10.30
2023-01-31T21:07:48.370Z,12.60
2023-01-31T21:10:34.587Z,10.87
2023-01-31T21:13:21.621Z,12.40
2023-01-31T21:16:08.065Z,11.50
2023-01-31T21:18:52.263Z,12.37
2023-01-31T21:21:36.373Z,10.60
2023-01-31T21:24:20.612Z,12.93
2023-01-31T21:27:04.375Z,9.97
2023-01-31T21:29:49.633Z,10.70
2023-01-31T21:32:33.398Z,11.20
2023-01-31T21:35:18.102Z,10.50
2023-01-31T21:38:02.073Z,12.13
2023-01-31T21:40:46.261Z,10.83
2023-01-31T21:43:30.978Z,10.23
2023-01-31T21:46:16.784Z,10.47
2023-01-31T21:49:01.436Z,10.10
2023-01-31T21:51:45.768Z,10.70
2023-01-31T21:54:29.764Z,9.80
2023-01-31T21:57:13.747Z,10.10
2023-01-31T21:59:57.724Z,9.97
2023-01-31T22:02:43.379Z,9.17
2023-01-31T22:05:27.377Z,10.93
2023-01-31T22:08:11.721Z,10.90
2023-01-31T22:11:00.524Z,9.27
2023-01-31T22:13:45.455Z,10.97
2023-01-31T22:16:29.742Z,11.30
2023-01-31T22:19:16.097Z,12.67
2023-01-31T22:22:00.467Z,9.50
2023-01-31T22:24:45.457Z,9.90
2023-01-31T22:27:29.256Z,11.37
2023-01-31T22:30:16.448Z,8.27
2023-01-31T22:33:00.602Z,12.33
2023-01-31T22:35:46.307Z,11.03
2023-01-31T22:38:30.358Z,9.97
2023-01-31T22:41:18.274Z,9.47
2023-01-31T22:44:03.667Z,10.43
2023-01-31T22:46:47.583Z,12.33
2023-01-31T22:49:31.417Z,11.37
2023-01-31T22:52:16.667Z,13.63
2023-01-31T22:55:00.463Z,10.70
2023-01-31T22:57:44.470Z,9.43
2023-01-31T23:00:28.163Z,11.27
2023-01-31T23:03:12.362Z,12.50
2023-01-31T23:05:56.456Z,12.47
2023-01-31T23:08:42.638Z,12.90
2023-01-31T23:11:26.885Z,11.73
2023-01-31T23:14:10.895Z,12.70
2023-01-31T23:17:12.457Z,13.87
2023-01-31T23:19:56.343Z,17.03
2023-01-31T23:22:40.340Z,12.17
2023-01-31T23:25:27.433Z,13.73
2023-01-31T23:28:11.439Z,13.03
2023-01-31T23:30:55.392Z,15.73
2023-01-31T23:33:39.265Z,13.37
2023-01-31T23:36:23.272Z,13.80
2023-01-31T23:39:07.426Z,12.43
2023-01-31T23:41:53.034Z,13.30
2023-01-31T23:44:37.079Z,14.07
2023-01-31T23:47:21.170Z,15.23
2023-01-31T23:50:05.356Z,15.50
2023-01-31T23:52:49.655Z,15.00
2023-01-31T23:55:33.615Z,12.20
2023-01-31T23:58:19.199Z,15.77
